Time;durP1;ratioP1;P1;durP2;ratioP2;P2;SDS_P1;SDS_P2;PMS_P1;PMS_P2;Temp;Humidity;BMP_temperature;BMP_pressure;BME280_temperature;BME280_humidity;BME280_pressure;Samples;Min_cycle;Max_cycle;Signal;HPM_P1;HPM_P2
2023/08/11 00:01:41;;;;;;;4.40;4.00;;;;;;;19.50;64.60;95802.25;4747646;30;20268;-90
2023/08/11 00:04:07;;;;;;;6.00;4.38;;;;;;;19.53;64.53;95807.03;4748640;30;20295;-90
2023/08/11 00:06:34;;;;;;;8.10;5.15;;;;;;;19.36;65.70;95829.59;4762183;30;20653;-90
2023/08/11 00:09:00;;;;;;;6.05;4.60;;;;;;;19.37;65.62;95835.59;4766777;30;20216;-90
2023/08/11 00:11:28;;;;;;;5.05;3.80;;;;;;;19.36;66.52;95862.75;4766492;30;20231;-90
2023/08/11 00:13:55;;;;;;;4.15;3.75;;;;;;;19.37;66.36;95864.31;4750390;30;20208;-91
2023/08/11 00:16:21;;;;;;;4.20;3.72;;;;;;;19.31;66.63;95864.19;4748871;30;20208;-91
2023/08/11 00:18:48;;;;;;;3.72;3.42;;;;;;;19.17;67.09;95877.69;4746301;30;20224;-91
2023/08/11 00:21:14;;;;;;;4.60;3.22;;;;;;;19.13;67.35;95872.09;4748512;30;20264;-91
2023/08/11 00:23:42;;;;;;;5.20;4.05;;;;;;;18.94;68.72;95915.72;4748753;30;20231;-90
2023/08/11 00:26:10;;;;;;;4.32;3.92;;;;;;;18.86;69.07;95928.25;4748621;30;20287;-90
2023/08/11 00:28:38;;;;;;;3.95;3.55;;;;;;;18.88;68.74;95924.41;4748476;30;20842;-90
2023/08/11 00:31:06;;;;;;;4.32;3.45;;;;;;;18.85;69.55;95937.13;4748821;30;20263;-90
2023/08/11 00:33:46;;;;;;;3.42;3.10;;;;;;;18.86;69.10;95921.22;4746768;30;20623;-90
2023/08/11 00:36:13;;;;;;;3.78;3.10;;;;;;;18.79;69.45;95932.78;4748906;30;20212;-90
2023/08/11 00:38:40;;;;;;;3.05;2.85;;;;;;;18.81;69.57;95938.56;4748421;30;20239;-91
2023/08/11 00:41:07;;;;;;;3.65;3.15;;;;;;;18.88;69.32;95941.88;4748314;30;20247;-90
2023/08/11 00:43:38;;;;;;;4.15;3.75;;;;;;;18.86;69.60;95936.09;4748772;30;20215;-92
2023/08/11 00:46:10;;;;;;;4.60;4.20;;;;;;;18.76;70.11;95943.66;4747856;30;20208;-90
2023/08/11 00:48:37;;;;;;;6.07;3.55;;;;;;;18.72;70.23;95951.09;4747238;30;20216;-91
2023/08/11 00:51:06;;;;;;;4.25;3.85;;;;;;;18.69;69.93;95946.31;4746700;30;20587;-89
2023/08/11 00:53:33;;;;;;;3.72;3.40;;;;;;;18.70;69.94;95937.47;4747948;30;20227;-90
2023/08/11 00:56:00;;;;;;;3.58;3.20;;;;;;;18.67;70.29;95945.75;4747716;30;20212;-91
2023/08/11 00:58:28;;;;;;;3.67;3.38;;;;;;;18.68;70.34;95947.34;4747967;30;20223;-90
2023/08/11 01:00:57;;;;;;;4.18;3.20;;;;;;;18.68;70.79;95964.78;4747788;30;20232;-90
2023/08/11 01:03:27;;;;;;;3.60;3.30;;;;;;;18.59;70.63;95966.91;4748295;30;20219;-91
2023/08/11 01:06:05;;;;;;;5.35;3.70;;;;;;;18.54;71.46;95979.75;4746563;30;20218;-90
2023/08/11 01:08:39;;;;;;;3.67;3.00;;;;;;;18.47;71.95;95995.47;4748328;30;20215;-90
2023/08/11 01:11:18;;;;;;;5.25;3.60;;;;;;;18.50;71.48;95983.81;4747878;30;20734;-89
2023/08/11 01:13:53;;;;;;;3.65;3.35;;;;;;;18.49;71.47;95982.22;4762723;30;20211;-90
2023/08/11 01:16:27;;;;;;;4.97;4.40;;;;;;;18.37;71.98;95995.19;4765927;30;20227;-90
2023/08/11 01:18:54;;;;;;;4.50;4.10;;;;;;;18.29;72.42;96003.25;4765868;30;20234;-89
2023/08/11 01:21:25;;;;;;;4.13;3.83;;;;;;;18.23;72.27;95999.72;4765518;30;20239;-91
2023/08/11 01:23:53;;;;;;;4.18;3.78;;;;;;;18.29;72.18;96000.66;4747359;30;20706;-92
2023/08/11 01:26:19;;;;;;;4.53;4.10;;;;;;;18.34;72.21;95997.41;4748006;30;20212;-90
2023/08/11 01:28:47;;;;;;;5.13;3.88;;;;;;;18.26;72.28;95988.06;4747969;30;20219;-90
2023/08/11 01:31:13;;;;;;;3.92;3.40;;;;;;;18.10;72.75;95999.81;4747723;30;20239;-91
2023/08/11 01:33:40;;;;;;;4.43;3.58;;;;;;;17.88;73.88;96028.06;4747766;30;20587;-90
2023/08/11 01:36:08;;;;;;;3.60;3.30;;;;;;;17.61;75.78;96069.06;4747498;30;20860;-89
2023/08/11 01:38:34;;;;;;;4.30;3.90;;;;;;;17.57;76.21;96074.88;4745441;30;20209;-89
2023/08/11 01:41:02;;;;;;;3.63;3.33;;;;;;;17.61;76.36;96082.06;4747607;30;20239;-92
2023/08/11 01:43:30;;;;;;;3.50;3.20;;;;;;;17.65;76.23;96079.09;4748225;30;20602;-90
2023/08/11 01:45:58;;;;;;;5.38;3.50;;;;;;;17.72;75.37;96069.41;4747642;30;20212;-90
2023/08/11 01:48:26;;;;;;;4.20;3.80;;;;;;;17.79;75.21;96067.59;4762706;30;20567;-90
2023/08/11 01:50:53;;;;;;;5.40;3.70;;;;;;;17.84;74.54;96052.13;4762189;30;20213;-90
2023/08/11 01:53:19;;;;;;;4.00;3.40;;;;;;;17.86;74.42;96053.53;4747569;30;20212;-91
2023/08/11 01:55:48;;;;;;;4.35;3.80;;;;;;;17.78;74.92;96047.75;4745998;30;20208;-90
2023/08/11 01:58:16;;;;;;;3.65;3.35;;;;;;;17.71;75.14;96054.78;4747673;30;20688;-90
2023/08/11 02:00:42;;;;;;;4.35;3.50;;;;;;;17.75;75.09;96061.19;4750215;30;20236;-90
2023/08/11 02:03:09;;;;;;;3.83;3.53;;;;;;;17.74;75.37;96067.41;4750916;30;20240;-90
2023/08/11 02:05:35;;;;;;;4.43;3.58;;;;;;;17.74;75.18;96056.97;4750917;30;20236;-90
2023/08/11 02:08:02;;;;;;;3.83;3.53;;;;;;;17.69;75.22;96070.66;4750858;30;20216;-93
2023/08/11 02:10:29;;;;;;;3.47;3.17;;;;;;;17.71;75.41;96071.22;4749743;30;20224;-89
2023/08/11 02:12:55;;;;;;;3.60;3.30;;;;;;;17.74;75.62;96075.22;4753697;30;20235;-90
2023/08/11 02:15:23;;;;;;;3.83;3.40;;;;;;;17.82;75.08;96060.16;4750765;30;20219;-90
2023/08/11 02:17:50;;;;;;;3.95;3.38;;;;;;;17.88;74.42;96048.91;4751174;30;20212;-90
2023/08/11 02:20:21;;;;;;;3.67;3.33;;;;;;;17.91;73.89;96039.84;4750968;30;20212;-90
2023/08/11 02:22:48;;;;;;;3.70;3.40;;;;;;;17.85;74.24;96041.50;4750769;30;20237;-93
2023/08/11 02:25:14;;;;;;;3.60;3.15;;;;;;;17.72;74.99;96057.19;4750713;30;20219;-89
2023/08/11 02:27:41;;;;;;;3.60;3.30;;;;;;;17.71;75.20;96057.41;4743559;30;20220;-89
2023/08/11 02:30:14;;;;;;;4.28;3.90;;;;;;;17.73;75.40;96064.00;4750181;30;20208;-90
2023/08/11 02:32:45;;;;;;;3.60;3.30;;;;;;;17.76;74.79;96052.38;4750509;30;20232;-90
2023/08/11 02:35:12;;;;;;;4.22;3.50;;;;;;;17.72;75.07;96061.59;4750588;30;20250;-90
2023/08/11 02:37:40;;;;;;;4.00;3.70;;;;;;;17.72;75.47;96064.19;4750359;30;20215;-90
2023/08/11 02:40:10;;;;;;;3.92;3.63;;;;;;;17.72;75.51;96067.63;4750332;30;20243;-90
2023/08/11 02:42:39;;;;;;;3.95;3.50;;;;;;;17.70;75.72;96081.88;4748495;30;20266;-89
2023/08/11 02:45:09;;;;;;;4.57;3.75;;;;;;;17.65;75.98;96079.09;4740235;30;20213;-90
2023/08/11 02:47:35;;;;;;;3.90;3.60;;;;;;;17.45;77.29;96113.78;4739014;30;20215;-90
2023/08/11 02:50:04;;;;;;;4.35;3.80;;;;;;;17.38;78.02;96120.81;4750445;30;20215;-89
2023/08/11 02:52:30;;;;;;;4.05;3.65;;;;;;;17.37;78.49;96124.44;4750404;30;20219;-91
2023/08/11 02:54:57;;;;;;;4.00;3.70;;;;;;;17.45;77.91;96116.41;4750107;30;20204;-90
2023/08/11 02:57:23;;;;;;;4.18;3.83;;;;;;;17.50;77.58;96106.16;4750197;30;20726;-89
2023/08/11 02:59:50;;;;;;;3.83;3.53;;;;;;;17.57;77.47;96106.13;4746688;30;20220;-91
2023/08/11 03:02:17;;;;;;;5.38;3.38;;;;;;;17.60;77.03;96087.50;4749939;30;20244;-90
2023/08/11 03:04:43;;;;;;;3.90;3.60;;;;;;;17.61;77.07;96087.28;4749942;30;20261;-90
2023/08/11 03:07:12;;;;;;;4.03;3.72;;;;;;;17.59;76.86;96075.47;4749955;30;20696;-90
2023/08/11 03:09:38;;;;;;;3.72;3.42;;;;;;;17.55;76.94;96087.31;4749706;30;20849;-89
2023/08/11 03:12:05;;;;;;;4.13;3.72;;;;;;;17.58;76.79;96081.69;4752250;30;20238;-90
2023/08/11 03:14:35;;;;;;;4.10;3.72;;;;;;;17.60;76.72;96085.69;4767179;30;20215;-90
2023/08/11 03:17:04;;;;;;;4.40;3.72;;;;;;;17.66;76.01;96076.28;4749626;30;20255;-90
2023/08/11 03:19:30;;;;;;;3.97;3.60;;;;;;;17.65;76.23;96085.09;4750466;30;20215;-91
2023/08/11 03:21:57;;;;;;;3.67;3.38;;;;;;;17.59;76.84;96091.09;4749618;30;20707;-90
2023/08/11 03:24:24;;;;;;;3.90;3.60;;;;;;;17.57;76.73;96087.91;4749705;30;20220;-90
2023/08/11 03:26:51;;;;;;;4.10;3.70;;;;;;;17.59;76.65;96089.28;4749804;30;20208;-92
2023/08/11 03:29:17;;;;;;;3.75;3.45;;;;;;;17.47;77.01;96103.19;4750171;30;20212;-90
2023/08/11 03:31:44;;;;;;;4.40;4.00;;;;;;;17.45;77.36;96098.19;4748636;30;20232;-89
2023/08/11 03:34:10;;;;;;;4.10;3.70;;;;;;;17.46;77.03;96097.16;4749355;30;20216;-90
2023/08/11 03:36:39;;;;;;;4.85;3.70;;;;;;;17.50;76.97;96097.56;4749428;30;20273;-91
2023/08/11 03:39:06;;;;;;;5.88;3.60;;;;;;;17.47;76.63;96096.16;4751018;30;20220;-90
2023/08/11 03:41:34;;;;;;;4.15;3.85;;;;;;;17.38;76.96;96100.00;4749188;30;20240;-90
2023/08/11 03:44:00;;;;;;;4.22;3.65;;;;;;;17.40;76.43;96097.97;4749137;30;20212;-91
2023/08/11 03:46:27;;;;;;;4.03;3.55;;;;;;;17.42;76.19;96090.78;4748067;30;20668;-90
2023/08/11 03:48:53;;;;;;;6.00;3.72;;;;;;;17.36;76.78;96109.00;4745956;30;20209;-89
2023/08/11 03:51:20;;;;;;;4.03;3.30;;;;;;;17.38;76.57;96113.00;4748630;30;20231;-90
2023/08/11 03:53:47;;;;;;;4.32;3.58;;;;;;;17.38;76.33;96101.78;4748972;30;20212;-92
2023/08/11 03:56:14;;;;;;;4.07;3.42;;;;;;;17.35;76.08;96094.41;4748918;30;20622;-91
2023/08/11 03:58:42;;;;;;;3.95;3.55;;;;;;;17.24;76.92;96122.66;4749433;30;20212;-90
2023/08/11 04:01:08;;;;;;;4.20;3.80;;;;;;;17.14;77.69;96137.09;4748794;30;20228;-90
2023/08/11 04:03:35;;;;;;;4.20;3.80;;;;;;;17.16;77.61;96137.69;4745546;30;20583;-89
2023/08/11 04:06:01;;;;;;;4.50;3.80;;;;;;;17.09;77.74;96136.94;4748599;30;20211;-90
2023/08/11 04:08:28;;;;;;;5.45;4.00;;;;;;;17.06;77.85;96142.53;4750060;30;20216;-88
2023/08/11 04:10:57;;;;;;;4.45;4.00;;;;;;;17.04;77.84;96147.13;4749098;30;20219;-88
2023/08/11 04:13:24;;;;;;;4.65;3.70;;;;;;;16.88;78.99;96161.38;4755669;30;20212;-89
2023/08/11 04:15:52;;;;;;;3.85;3.55;;;;;;;16.69;80.12;96181.19;4749500;30;20217;-89
2023/08/11 04:18:19;;;;;;;4.22;3.83;;;;;;;16.68;80.85;96195.19;4747666;30;20208;-88
2023/08/11 04:20:48;;;;;;;4.40;4.00;;;;;;;16.73;80.59;96191.97;4742542;30;20299;-88
2023/08/11 04:23:15;;;;;;;4.18;3.78;;;;;;;16.76;80.83;96201.97;4744999;30;20228;-89
2023/08/11 04:25:41;;;;;;;4.15;3.40;;;;;;;16.84;80.46;96196.56;4748121;30;20204;-89
2023/08/11 04:28:08;;;;;;;4.38;3.80;;;;;;;16.93;80.12;96185.75;4750314;30;20208;-89
2023/08/11 04:30:34;;;;;;;4.15;3.78;;;;;;;16.91;80.60;96190.38;4746187;30;20216;-89
2023/08/11 04:33:02;;;;;;;4.90;4.22;;;;;;;17.03;79.84;96181.97;4748678;30;20224;-90
2023/08/11 04:35:29;;;;;;;4.28;3.88;;;;;;;17.18;79.06;96174.72;4754170;30;20254;-88
2023/08/11 04:37:55;;;;;;;4.28;3.80;;;;;;;17.26;78.53;96170.13;4747680;30;20227;-89
2023/08/11 04:40:22;;;;;;;4.30;3.65;;;;;;;17.20;78.96;96175.31;4748458;30;20278;-89
2023/08/11 04:42:49;;;;;;;5.65;3.88;;;;;;;17.22;78.78;96175.94;4748041;30;20228;-88
2023/08/11 04:45:19;;;;;;;5.88;4.20;;;;;;;17.20;79.78;96196.16;4752229;30;20212;-88
2023/08/11 04:54:10;;;;;;;;;;;;;;;;;;;;;
2023/08/11 05:03:51;;;;;;;;;;;;;;;;;;;;;
2023/08/11 05:06:35;;;;;;;;;;;;;;;;;;;;;
2023/08/11 05:16:03;;;;;;;4.18;3.60;;;;;;;18.07;78.22;96184.50;4739871;30;20721;-87
2023/08/11 05:18:30;;;;;;;4.10;3.75;;;;;;;18.10;78.63;96195.28;4768019;30;20833;-88
2023/08/11 05:20:56;;;;;;;6.28;4.28;;;;;;;18.07;79.32;96211.34;4769421;30;20211;-87
2023/08/11 05:23:23;;;;;;;3.95;3.65;;;;;;;18.18;78.65;96202.88;4768729;30;20336;-86
2023/08/11 05:25:51;;;;;;;4.32;3.92;;;;;;;18.29;78.61;96194.38;4765717;30;20212;-88
2023/08/11 05:28:21;;;;;;;4.55;3.83;;;;;;;18.40;78.14;96192.91;4770750;30;20261;-88
2023/08/11 05:30:48;;;;;;;4.13;3.72;;;;;;;18.46;77.95;96194.69;4772596;30;20218;-88
2023/08/11 05:33:15;;;;;;;5.15;3.80;;;;;;;18.55;77.50;96179.56;4773142;30;20234;-88
2023/08/11 05:35:42;;;;;;;4.60;3.90;;;;;;;18.57;78.00;96186.19;4774579;30;20622;-88
2023/08/11 05:38:08;;;;;;;4.55;3.67;;;;;;;18.71;77.32;96178.28;4774867;30;20218;-88
2023/08/11 05:40:35;;;;;;;5.50;3.97;;;;;;;18.79;76.75;96155.34;4772907;30;20212;-88
2023/08/11 05:43:01;;;;;;;3.50;3.20;;;;;;;18.91;76.44;96147.59;4774295;30;20243;-87
2023/08/11 05:45:27;;;;;;;5.40;3.63;;;;;;;19.01;76.04;96144.53;4773925;30;20227;-88
2023/08/11 05:47:54;;;;;;;3.70;3.38;;;;;;;19.07;75.62;96134.00;4772985;30;20204;-89
2023/08/11 05:50:22;;;;;;;3.55;3.25;;;;;;;19.13;75.66;96129.72;4774243;30;20215;-88
2023/08/11 05:52:48;;;;;;;7.30;4.20;;;;;;;19.20;75.24;96122.66;4774226;30;20239;-88
2023/08/11 05:55:15;;;;;;;5.93;4.28;;;;;;;19.28;75.54;96135.41;4773800;30;20214;-88
2023/08/11 05:57:41;;;;;;;6.10;3.90;;;;;;;19.35;75.18;96123.06;4772861;30;20222;-88
2023/08/11 06:00:09;;;;;;;4.75;3.75;;;;;;;19.44;74.95;96124.38;4773394;30;20211;-88
2023/08/11 06:02:36;;;;;;;5.22;3.50;;;;;;;19.51;74.71;96116.50;4772187;30;20826;-88
2023/08/11 06:05:02;;;;;;;4.57;3.53;;;;;;;19.65;74.15;96097.81;4771432;30;20203;-87
2023/08/11 06:07:30;;;;;;;5.95;3.40;;;;;;;19.77;74.36;96107.53;4772204;30;20211;-85
2023/08/11 06:09:57;;;;;;;3.72;3.40;;;;;;;19.93;73.38;96080.78;4770881;30;20254;-86
2023/08/11 06:12:24;;;;;;;5.88;3.60;;;;;;;20.09;72.93;96066.28;4768427;30;20234;-87
2023/08/11 06:14:50;;;;;;;3.53;3.22;;;;;;;20.18;72.90;96059.72;4770476;30;20211;-85
2023/08/11 06:17:17;;;;;;;3.70;3.40;;;;;;;20.20;72.89;96073.34;4769875;30;20203;-86
2023/08/11 06:19:43;;;;;;;4.85;3.10;;;;;;;20.17;72.98;96077.22;4770540;30;20203;-86
2023/08/11 06:22:10;;;;;;;4.05;3.58;;;;;;;20.12;73.55;96078.91;4770115;30;20261;-86
2023/08/11 06:24:38;;;;;;;3.65;3.35;;;;;;;20.07;74.04;96097.06;4769827;30;20212;-86
2023/08/11 06:27:05;;;;;;;3.78;3.35;;;;;;;20.09;74.38;96103.66;4770885;30;20230;-86
2023/08/11 06:29:31;;;;;;;3.58;3.25;;;;;;;20.11;74.59;96112.09;4768892;30;20208;-85
2023/08/11 06:31:58;;;;;;;3.55;3.25;;;;;;;20.20;74.99;96116.00;4767148;30;20227;-86
2023/08/11 06:34:24;;;;;;;4.25;3.85;;;;;;;20.29;74.77;96112.03;4770630;30;20243;-87
2023/08/11 06:36:50;;;;;;;3.47;3.17;;;;;;;20.41;73.65;96091.13;4770749;30;20216;-86
2023/08/11 06:39:17;;;;;;;4.18;3.40;;;;;;;20.55;74.06;96091.75;4770230;30;20215;-86
2023/08/11 06:41:45;;;;;;;4.32;3.85;;;;;;;20.62;73.10;96076.72;4769630;30;20239;-86
2023/08/11 06:44:11;;;;;;;3.08;2.80;;;;;;;20.67;72.39;96061.13;4769644;30;20211;-86
2023/08/11 06:46:38;;;;;;;3.03;2.72;;;;;;;20.68;72.68;96076.59;4767222;30;20227;-87
2023/08/11 06:49:04;;;;;;;4.55;3.58;;;;;;;20.79;73.34;96092.53;4770206;30;20212;-86
2023/08/11 06:51:31;;;;;;;3.40;3.10;;;;;;;20.92;72.67;96079.22;4770227;30;20601;-87
2023/08/11 06:53:57;;;;;;;3.40;3.03;;;;;;;20.96;73.11;96088.22;4768378;30;20243;-87
2023/08/11 06:56:24;;;;;;;5.30;3.10;;;;;;;21.07;72.43;96084.78;4770191;30;20204;-87
2023/08/11 06:58:58;;;;;;;3.40;3.10;;;;;;;21.14;71.26;96040.94;4769728;30;20212;-90
2023/08/11 07:01:24;;;;;;;3.75;2.97;;;;;;;21.28;70.11;96016.09;4768998;30;20289;-87
2023/08/11 07:03:51;;;;;;;3.45;2.97;;;;;;;21.36;69.94;96012.31;4770748;30;20239;-87
2023/08/11 07:06:17;;;;;;;3.50;3.20;;;;;;;21.37;69.68;96006.03;4772341;30;20662;-87
2023/08/11 07:08:44;;;;;;;3.53;3.20;;;;;;;21.44;69.47;96000.66;4770636;30;20208;-87
2023/08/11 07:11:10;;;;;;;5.43;3.40;;;;;;;21.51;69.35;96001.34;4770904;30;20211;-87
2023/08/11 07:13:37;;;;;;;5.22;3.10;;;;;;;21.60;70.07;96036.59;4770527;30;20203;-88
2023/08/11 07:16:05;;;;;;;4.20;3.13;;;;;;;21.80;68.46;95987.16;4771342;30;20597;-88
2023/08/11 07:18:31;;;;;;;3.22;2.92;;;;;;;21.99;67.75;95975.41;4770584;30;20216;-88
2023/08/11 07:20:58;;;;;;;3.20;2.90;;;;;;;22.10;66.66;95931.03;4773626;30;20216;-87
2023/08/11 07:23:24;;;;;;;3.00;2.80;;;;;;;22.12;66.21;95913.22;4773881;30;20232;-87
2023/08/11 07:25:51;;;;;;;3.15;2.88;;;;;;;22.22;65.51;95897.63;4773482;30;20906;-88
2023/08/11 07:28:17;;;;;;;3.63;3.20;;;;;;;22.30;64.52;95860.47;4772112;30;20265;-91
2023/08/11 07:30:46;;;;;;;3.50;3.13;;;;;;;22.36;64.21;95844.53;4766234;30;20203;-89
2023/08/11 07:33:14;;;;;;;4.25;3.58;;;;;;;22.50;64.64;95876.47;4768090;30;20237;-89
2023/08/11 07:35:41;;;;;;;3.45;3.15;;;;;;;22.64;63.95;95843.56;4770811;30;20223;-87
2023/08/11 07:38:07;;;;;;;4.63;4.20;;;;;;;22.72;63.71;95823.94;4769270;30;20211;-89
2023/08/11 07:40:35;;;;;;;4.72;4.25;;;;;;;22.78;63.07;95804.63;4769381;30;20275;-87
2023/08/11 07:43:01;;;;;;;3.83;3.33;;;;;;;22.90;62.09;95779.00;4770663;30;20239;-88
2023/08/11 07:45:28;;;;;;;3.20;3.00;;;;;;;22.95;61.91;95763.28;4770048;30;20590;-87
2023/08/11 07:47:56;;;;;;;4.07;3.67;;;;;;;23.05;61.40;95736.34;4769199;30;20222;-87
2023/08/11 07:50:24;;;;;;;4.63;3.45;;;;;;;23.26;60.60;95724.13;4769324;30;20212;-87
2023/08/11 07:52:53;;;;;;;3.33;3.00;;;;;;;23.45;60.95;95735.03;4770026;30;20786;-87
2023/08/11 07:55:20;;;;;;;3.53;3.22;;;;;;;23.63;60.61;95727.56;4769670;30;20211;-88
2023/08/11 07:57:46;;;;;;;7.28;3.92;;;;;;;23.81;61.06;95722.91;4769370;30;20220;-88
2023/08/11 08:00:16;;;;;;;3.65;3.35;;;;;;;23.85;59.08;95660.88;4769442;30;20212;-88
2023/08/11 08:02:44;;;;;;;4.05;3.53;;;;;;;23.90;59.52;95659.03;4769194;30;20246;-87
2023/08/11 08:05:10;;;;;;;3.42;3.13;;;;;;;24.02;58.61;95632.50;4762680;30;20687;-87
2023/08/11 08:07:38;;;;;;;3.40;3.10;;;;;;;24.20;58.52;95616.22;4768242;30;20219;-87
2023/08/11 08:10:08;;;;;;;3.20;2.90;;;;;;;24.25;56.97;95554.94;4758491;30;20225;-88
2023/08/11 08:12:35;;;;;;;3.97;2.95;;;;;;;24.29;56.50;95527.03;4768556;30;20224;-87
2023/08/11 08:15:03;;;;;;;4.63;3.60;;;;;;;24.39;56.92;95556.78;4767531;30;20207;-88
2023/08/11 08:17:31;;;;;;;3.47;3.17;;;;;;;24.65;56.50;95541.75;4767980;30;20724;-88
2023/08/11 08:19:57;;;;;;;4.15;3.05;;;;;;;24.79;56.15;95529.63;4767885;30;20226;-88
2023/08/11 08:22:24;;;;;;;3.80;3.50;;;;;;;24.91;55.41;95502.97;4765922;30;20258;-88
2023/08/11 08:24:55;;;;;;;4.30;3.25;;;;;;;25.00;53.90;95438.19;4767525;30;20208;-88
2023/08/11 08:27:24;;;;;;;3.90;3.00;;;;;;;25.02;53.26;95379.91;4768776;30;20212;-88
2023/08/11 08:29:51;;;;;;;3.03;2.83;;;;;;;25.09;53.26;95404.91;4767070;30;20688;-88
2023/08/11 08:32:18;;;;;;;6.15;4.95;;;;;;;25.22;53.47;95371.09;4767924;30;20251;-87
2023/08/11 08:34:44;;;;;;;11.00;4.78;;;;;;;25.40;52.74;95373.13;4767300;30;20208;-87
2023/08/11 08:37:11;;;;;;;3.65;2.95;;;;;;;25.53;51.03;95289.97;4767689;30;20216;-88
2023/08/11 08:39:37;;;;;;;3.75;3.45;;;;;;;25.61;51.34;95308.59;4766304;30;20211;-88
2023/08/11 08:42:06;;;;;;;3.28;2.95;;;;;;;25.76;51.04;95284.75;4768206;30;20242;-87
2023/08/11 08:44:35;;;;;;;3.17;2.88;;;;;;;25.91;51.91;95341.06;4767700;30;20199;-87
2023/08/11 08:47:05;;;;;;;5.10;3.13;;;;;;;26.20;51.63;95336.53;4768011;30;20240;-88
2023/08/11 08:49:32;;;;;;;3.28;2.80;;;;;;;26.24;50.20;95261.00;4768113;30;20243;-87
2023/08/11 08:51:59;;;;;;;4.10;3.00;;;;;;;26.36;52.14;95340.59;4768671;30;20231;-87
2023/08/11 08:54:28;;;;;;;3.10;2.90;;;;;;;26.45;50.39;95274.75;4766750;30;20207;-87
2023/08/11 08:56:55;;;;;;;4.28;2.65;;;;;;;26.42;50.29;95243.63;4766939;30;20219;-87
2023/08/11 08:59:23;;;;;;;3.28;2.70;;;;;;;26.46;49.78;95200.53;4756736;30;20296;-88
2023/08/11 09:01:51;;;;;;;3.40;3.08;;;;;;;26.48;49.20;95193.13;4766854;30;20231;-87
2023/08/11 09:04:20;;;;;;;3.85;2.92;;;;;;;26.67;49.78;95210.81;4766536;30;20317;-90
2023/08/11 09:06:47;;;;;;;2.92;2.63;;;;;;;26.72;49.21;95182.47;4765995;30;20211;-89
2023/08/11 09:09:15;;;;;;;2.75;2.55;;;;;;;26.71;48.87;95164.28;4765474;30;20586;-88
2023/08/11 09:11:42;;;;;;;3.08;2.88;;;;;;;26.72;47.60;95115.66;4764329;30;20262;-90
2023/08/11 09:14:47;;;;;;;2.92;2.63;;;;;;;26.90;48.07;95127.25;4765196;30;20211;-88
2023/08/11 09:17:26;;;;;;;3.00;2.50;;;;;;;27.02;46.70;95059.66;4765243;30;20296;-88
2023/08/11 09:19:53;;;;;;;2.70;2.50;;;;;;;27.15;46.93;95089.81;4765451;30;20215;-88
2023/08/11 09:22:24;;;;;;;3.63;2.75;;;;;;;27.28;46.47;95061.81;4764739;30;20240;-89
2023/08/11 09:24:53;;;;;;;2.55;2.35;;;;;;;27.34;46.61;95042.13;4759428;30;20212;-88
2023/08/11 09:27:20;;;;;;;2.60;2.40;;;;;;;27.46;45.72;94986.88;4764597;30;20215;-89
2023/08/11 09:29:49;;;;;;;2.47;2.28;;;;;;;27.66;46.00;95035.94;4765537;30;20216;-88
2023/08/11 09:32:22;;;;;;;2.70;2.50;;;;;;;27.78;45.94;95015.81;4765502;30;20718;-89
2023/08/11 09:34:50;;;;;;;2.88;2.60;;;;;;;27.85;45.57;95032.06;4765345;30;20219;-88
2023/08/11 09:37:19;;;;;;;2.70;2.50;;;;;;;27.94;44.64;94981.06;4765490;30;20705;-89
2023/08/11 09:39:48;;;;;;;5.05;2.90;;;;;;;28.06;45.10;94978.69;4765337;30;20207;-89
2023/08/11 09:42:16;;;;;;;3.20;2.65;;;;;;;28.19;44.62;94983.09;4763837;30;20228;-89
2023/08/11 09:44:52;;;;;;;3.22;2.90;;;;;;;28.33;45.29;95009.53;4765131;30;20242;-88
2023/08/11 09:47:19;;;;;;;3.30;2.50;;;;;;;28.38;44.04;94967.84;4764880;30;20215;-89
2023/08/11 09:49:48;;;;;;;2.67;2.47;;;;;;;28.17;44.43;94951.66;4764791;30;20218;-89
2023/08/11 09:52:17;;;;;;;2.78;2.53;;;;;;;28.15;44.27;94966.25;4754829;30;20587;-88
2023/08/11 09:54:44;;;;;;;3.35;2.58;;;;;;;28.31;43.96;94942.84;4752669;30;20227;-88
2023/08/11 09:57:14;;;;;;;2.80;2.60;;;;;;;28.55;44.85;94980.38;4765241;30;20262;-88
2023/08/11 09:59:42;;;;;;;4.32;2.50;;;;;;;28.77;44.47;94956.47;4764276;30;20219;-89
2023/08/11 10:02:16;;;;;;;3.67;2.97;;;;;;;28.94;43.54;94944.38;4765434;30;20259;-88
2023/08/11 10:04:46;;;;;;;2.67;2.47;;;;;;;29.15;43.97;94924.94;4765629;30;20575;-89
2023/08/11 10:07:18;;;;;;;2.58;2.38;;;;;;;29.27;43.17;94904.97;4765402;30;20242;-88
2023/08/11 10:09:48;;;;;;;3.45;2.95;;;;;;;29.34;42.28;94858.34;4765668;30;20260;-87
2023/08/11 10:12:15;;;;;;;3.38;2.55;;;;;;;29.40;42.38;94874.94;4773563;30;20243;-88
2023/08/11 10:14:43;;;;;;;6.75;2.70;;;;;;;29.47;42.56;94876.00;4764370;30;20212;-90
2023/08/11 10:17:13;;;;;;;2.78;2.55;;;;;;;29.53;42.99;94895.97;4765219;30;20204;-88
2023/08/11 10:19:40;;;;;;;2.63;2.42;;;;;;;29.48;42.61;94866.16;4765405;30;20219;-88
2023/08/11 10:22:06;;;;;;;2.95;2.45;;;;;;;29.34;41.39;94799.22;4768625;30;20252;-87
2023/08/11 10:24:37;;;;;;;2.58;2.38;;;;;;;29.43;42.15;94831.88;4770350;30;20231;-89
2023/08/11 10:27:04;;;;;;;2.53;2.33;;;;;;;29.53;42.29;94866.00;4769639;30;20215;-88
2023/08/11 10:29:31;;;;;;;2.70;2.50;;;;;;;29.53;41.49;94823.56;4768350;30;20203;-90
2023/08/11 10:31:59;;;;;;;2.88;2.60;;;;;;;29.65;41.67;94839.63;4766946;30;20235;-89
2023/08/11 10:34:26;;;;;;;3.72;2.35;;;;;;;29.61;42.45;94878.50;4753167;30;20216;-88
2023/08/11 10:37:14;;;;;;;4.15;2.70;;;;;;;29.48;41.42;94805.94;4763265;30;20208;-88
2023/08/11 10:39:42;;;;;;;3.03;2.60;;;;;;;29.38;41.23;94781.59;4758865;30;20222;-89
2023/08/11 10:42:12;;;;;;;2.33;2.20;;;;;;;29.39;40.83;94783.97;4768815;30;20243;-90
2023/08/11 10:44:44;;;;;;;3.17;2.28;;;;;;;29.43;41.13;94789.41;4768482;30;20228;-89
2023/08/11 10:47:12;;;;;;;2.67;2.47;;;;;;;29.55;41.15;94779.72;4766302;30;20243;-88
2023/08/11 10:49:43;;;;;;;3.95;2.63;;;;;;;29.49;41.46;94806.72;4768323;30;20208;-89
2023/08/11 10:52:09;;;;;;;3.33;2.55;;;;;;;29.54;41.78;94825.91;4768288;30;20232;-89
2023/08/11 10:54:35;;;;;;;3.70;2.80;;;;;;;29.59;42.15;94837.47;4766520;30;20200;-90
2023/08/11 10:57:04;;;;;;;4.25;2.58;;;;;;;29.67;42.34;94879.88;4767064;30;20207;-89
2023/08/11 10:59:33;;;;;;;2.65;2.42;;;;;;;29.87;41.90;94857.22;4767266;30;20207;-90
2023/08/11 11:02:00;;;;;;;3.03;2.80;;;;;;;29.79;41.45;94802.28;4767117;30;20231;-89
2023/08/11 11:04:29;;;;;;;3.45;2.70;;;;;;;29.63;40.71;94775.50;4762957;30;20257;-89
2023/08/11 11:07:29;;;;;;;2.50;2.35;;;;;;;29.42;40.47;94740.13;4767655;30;20341;-89
2023/08/11 11:10:01;;;;;;;2.90;2.70;;;;;;;29.40;41.17;94813.91;4763142;30;20243;-89
2023/08/11 11:12:34;;;;;;;6.68;2.60;;;;;;;29.61;41.89;94843.22;4767767;30;20230;-88
2023/08/11 11:21:23;;;;;;;3.97;2.90;;;;;;;29.31;41.30;94816.53;4765325;30;20304;-89
2023/08/11 11:23:51;;;;;;;4.72;2.80;;;;;;;29.35;42.49;94862.56;4767481;30;20236;-90
2023/08/11 11:26:42;;;;;;;3.10;2.88;;;;;;;29.43;42.44;94859.16;4767782;30;20211;-89
2023/08/11 11:39:03;;;;;;;4.00;2.60;;;;;;;29.88;41.33;94818.94;4765827;30;20361;-90
2023/08/11 11:42:18;;;;;;;2.45;2.25;;;;;;;29.87;40.64;94762.44;4767275;30;20231;-88
2023/08/11 11:45:17;;;;;;;2.25;2.05;;;;;;;30.01;40.31;94749.00;4767120;30;20706;-88
2023/08/11 11:48:09;;;;;;;2.53;2.33;;;;;;;29.99;39.67;94721.97;4766726;30;20609;-89
2023/08/11 12:00:09;;;;;;;;;;;;;;;;;;;;;
2023/08/11 12:06:29;;;;;;;2.63;2.42;;;;;;;30.60;40.03;94732.28;4698234;30;20218;-89
2023/08/11 12:09:22;;;;;;;2.95;2.45;;;;;;;30.39;38.42;94665.81;4694549;30;20222;-89
2023/08/11 12:12:04;;;;;;;2.70;2.50;;;;;;;30.19;38.81;94662.06;4704182;30;20230;-89
2023/08/11 12:14:45;;;;;;;2.70;2.50;;;;;;;30.16;38.91;94683.94;4741566;30;20574;-90
2023/08/11 12:20:29;;;;;;;2.72;2.25;;;;;;;30.49;40.47;94767.16;4758421;30;20211;-89
2023/08/11 12:25:59;;;;;;;2.53;2.33;;;;;;;30.96;38.93;94687.25;4759039;30;20219;-89
2023/08/11 12:28:31;;;;;;;2.45;2.25;;;;;;;30.96;38.40;94647.38;4765698;30;20210;-89
2023/08/11 12:31:05;;;;;;;4.93;2.40;;;;;;;30.70;38.08;94657.47;4766568;30;20211;-89
2023/08/11 12:34:06;;;;;;;2.55;2.28;;;;;;;30.72;37.98;94628.69;4765865;30;20249;-92
2023/08/11 12:36:35;;;;;;;2.20;2.03;;;;;;;30.71;38.07;94627.91;4764611;30;20204;-89
2023/08/11 12:39:13;;;;;;;2.80;2.35;;;;;;;30.80;37.79;94633.13;4763851;30;20212;-90
2023/08/11 12:41:41;;;;;;;2.30;2.10;;;;;;;30.73;39.01;94683.38;4761457;30;20231;-89
2023/08/11 12:44:10;;;;;;;2.13;2.00;;;;;;;30.82;38.30;94657.50;4761539;30;21668;-89